Time;durP1;ratioP1;P1;durP2;ratioP2;P2;SDS_P1;SDS_P2;PMS_P1;PMS_P2;Temp;Humidity;BMP_temperature;BMP_pressure;BME280_temperature;BME280_humidity;BME280_pressure;Samples;Min_cycle;Max_cycle;Signal;HPM_P1;HPM_P2
2022/04/10 00:02:07;;;;;;;6.90;1.40;;;;;;;3.13;70.13;99789.63;105950;1271;25249;-50
2022/04/10 00:04:41;;;;;;;6.70;1.50;;;;;;;3.12;70.32;99788.16;105865;1271;24136;-53
2022/04/10 00:07:12;;;;;;;7.30;1.30;;;;;;;3.11;70.37;99791.40;105841;1271;25182;-52
2022/04/10 00:09:43;;;;;;;6.40;1.40;;;;;;;3.11;70.34;99789.06;105940;1271;22528;-52
2022/04/10 00:12:14;;;;;;;10.30;2.00;;;;;;;3.10;70.46;99788.94;105865;1271;23151;-53
2022/04/10 00:14:46;;;;;;;6.60;1.40;;;;;;;3.09;70.39;99787.70;106198;1271;22610;-51
2022/04/10 00:17:18;;;;;;;7.80;1.40;;;;;;;3.08;70.59;99790.66;106054;1271;24307;-50
2022/04/10 00:19:49;;;;;;;6.00;1.10;;;;;;;3.07;70.81;99789.90;105957;1271;24205;-51
2022/04/10 00:22:21;;;;;;;6.30;1.40;;;;;;;3.04;70.62;99788.16;105690;1271;22605;-53
2022/04/10 00:24:52;;;;;;;7.60;1.60;;;;;;;3.03;71.04;99787.40;105766;1271;25498;-53
2022/04/10 00:27:23;;;;;;;6.40;1.30;;;;;;;3.02;70.85;99787.30;105765;1271;25323;-51
2022/04/10 00:29:55;;;;;;;9.80;1.50;;;;;;;3.01;71.44;99789.04;105962;1271;22540;-53
2022/04/10 00:32:30;;;;;;;7.20;1.00;;;;;;;3.01;71.50;99792.89;105977;1271;22528;-51
2022/04/10 00:35:01;;;;;;;11.30;1.80;;;;;;;3.02;71.59;99799.00;106208;1271;22798;-55
2022/04/10 00:37:33;;;;;;;12.90;1.80;;;;;;;3.03;71.58;99801.04;105906;1271;22544;-51
2022/04/10 00:40:05;;;;;;;11.10;1.30;;;;;;;3.03;71.41;99805.69;105775;1271;25364;-50
2022/04/10 00:42:39;;;;;;;6.80;1.10;;;;;;;3.01;71.48;99798.50;105981;1271;25248;-55
2022/04/10 00:45:12;;;;;;;7.00;1.40;;;;;;;3.00;71.63;99803.63;105872;1271;24847;-49
2022/04/10 00:47:45;;;;;;;6.20;1.00;;;;;;;2.99;71.79;99801.23;105739;1271;22550;-52
2022/04/10 00:50:18;;;;;;;5.30;1.40;;;;;;;2.98;71.72;99807.10;105870;1271;24227;-52
2022/04/10 00:52:51;;;;;;;6.80;1.30;;;;;;;2.97;71.94;99804.69;105854;1271;26650;-55
2022/04/10 00:55:23;;;;;;;9.20;1.50;;;;;;;2.97;71.90;99803.02;105992;1271;26069;-51
2022/04/10 00:57:54;;;;;;;6.50;1.20;;;;;;;2.97;71.82;99805.48;105843;1271;22619;-52
2022/04/10 01:00:26;;;;;;;5.80;1.60;;;;;;;2.95;71.89;99801.90;105761;1271;25329;-55
2022/04/10 01:02:57;;;;;;;8.10;1.10;;;;;;;2.93;72.07;99808.64;105888;1271;22632;-54
2022/04/10 01:05:29;;;;;;;11.70;1.00;;;;;;;2.92;72.13;99809.23;105609;1271;22541;-54
2022/04/10 01:08:00;;;;;;;8.50;1.60;;;;;;;2.89;72.21;99808.93;105867;1271;23888;-53
2022/04/10 01:10:32;;;;;;;4.20;0.90;;;;;;;2.88;72.26;99809.82;105954;1271;22528;-51
2022/04/10 01:13:05;;;;;;;6.40;1.10;;;;;;;2.87;72.57;99810.48;106066;1271;25232;-53
2022/04/10 01:15:38;;;;;;;6.50;1.00;;;;;;;2.85;72.91;99817.23;106007;1271;22582;-55
2022/04/10 01:18:12;;;;;;;6.70;1.20;;;;;;;2.86;72.86;99816.02;105784;1271;25357;-51
2022/04/10 01:20:43;;;;;;;4.40;1.10;;;;;;;2.86;72.92;99817.36;105615;1271;22563;-54
2022/04/10 01:23:15;;;;;;;4.20;1.00;;;;;;;2.86;72.97;99823.20;105865;1271;25241;-55
2022/04/10 01:25:46;;;;;;;8.30;1.20;;;;;;;2.84;72.79;99825.36;105785;1271;22528;-52
2022/04/10 01:28:17;;;;;;;8.90;1.40;;;;;;;2.83;72.88;99826.91;105851;1271;25350;-52
2022/04/10 01:30:49;;;;;;;8.30;1.40;;;;;;;2.80;73.21;99834.15;105717;1271;25215;-54
2022/04/10 01:33:21;;;;;;;7.20;1.20;;;;;;;2.79;73.28;99833.39;106049;1271;22532;-55
2022/04/10 01:35:53;;;;;;;9.00;1.40;;;;;;;2.78;73.29;99836.71;106113;1271;23930;-52
2022/04/10 01:38:25;;;;;;;4.60;1.20;;;;;;;2.78;73.45;99835.80;106244;1271;24431;-53
2022/04/10 01:40:57;;;;;;;7.40;1.60;;;;;;;2.77;73.67;99837.16;106130;1271;22538;-53
2022/04/10 01:43:28;;;;;;;7.10;1.50;;;;;;;2.75;73.33;99839.42;106159;1271;25296;-54
2022/04/10 01:45:59;;;;;;;7.60;1.40;;;;;;;2.74;73.87;99842.59;106064;1271;26510;-57
2022/04/10 01:48:32;;;;;;;5.10;1.30;;;;;;;2.74;73.75;99847.80;105995;1271;24317;-56
2022/04/10 01:51:03;;;;;;;8.00;1.50;;;;;;;2.74;73.71;99847.00;105715;1271;23066;-53
2022/04/10 01:53:38;;;;;;;10.50;1.70;;;;;;;2.73;73.77;99848.83;106156;1264;25063;31
2022/04/10 01:56:10;;;;;;;5.30;1.20;;;;;;;2.71;73.59;99853.05;105705;1270;22599;-56
2022/04/10 01:58:43;;;;;;;8.50;1.40;;;;;;;2.68;73.75;99854.48;107630;1273;24231;-57
2022/04/10 02:01:17;;;;;;;7.20;1.40;;;;;;;2.66;73.99;99852.27;105643;1273;22560;-57
2022/04/10 02:03:50;;;;;;;5.70;1.40;;;;;;;2.65;74.09;99855.20;105693;1272;22549;-58
2022/04/10 02:06:24;;;;;;;6.40;1.40;;;;;;;2.65;74.09;99858.35;105609;1273;22549;-58
2022/04/10 02:08:55;;;;;;;8.50;1.40;;;;;;;2.64;74.30;99860.20;109637;1273;22385;-59
2022/04/10 02:11:27;;;;;;;8.60;2.10;;;;;;;2.63;74.19;99856.76;108438;1271;24244;-57
2022/04/10 02:13:58;;;;;;;9.40;1.50;;;;;;;2.63;74.15;99857.22;109649;1273;22397;-58
2022/04/10 02:16:29;;;;;;;10.70;1.60;;;;;;;2.62;74.24;99861.73;107627;1273;22546;-60
2022/04/10 02:19:01;;;;;;;7.20;1.70;;;;;;;2.60;74.16;99858.39;105686;1273;23673;-57
2022/04/10 02:21:32;;;;;;;7.20;1.20;;;;;;;2.60;74.40;99866.13;105735;1273;22558;-57
2022/04/10 02:24:04;;;;;;;8.40;1.70;;;;;;;2.59;74.41;99871.45;105733;1273;22538;-57
2022/04/10 02:26:37;;;;;;;12.70;2.10;;;;;;;2.59;74.70;99872.70;105704;1273;25526;-59
2022/04/10 02:29:09;;;;;;;9.00;1.70;;;;;;;2.59;74.56;99874.65;105703;1273;25375;-57
2022/04/10 02:31:40;;;;;;;11.10;2.60;;;;;;;2.58;74.95;99880.81;105745;1273;22551;-60
2022/04/10 02:34:13;;;;;;;8.80;1.90;;;;;;;2.58;74.63;99880.65;105875;1273;22543;-60
2022/04/10 02:36:44;;;;;;;8.50;1.90;;;;;;;2.58;74.64;99881.69;105668;1273;22546;-57
2022/04/10 02:39:15;;;;;;;7.50;1.80;;;;;;;2.56;74.57;99884.89;105711;1273;24313;-60
2022/04/10 02:41:47;;;;;;;7.80;1.60;;;;;;;2.54;74.75;99884.64;105982;1273;25438;-57
2022/04/10 02:44:19;;;;;;;8.20;1.90;;;;;;;2.52;74.89;99887.82;105748;1271;24425;-56
2022/04/10 02:46:50;;;;;;;8.40;2.20;;;;;;;2.51;74.90;99894.23;105632;1271;22812;-59
2022/04/10 02:49:22;;;;;;;10.30;2.40;;;;;;;2.50;74.99;99895.20;105642;1273;22585;-58
2022/04/10 02:51:54;;;;;;;9.50;2.30;;;;;;;2.48;74.92;99896.27;105656;1273;24290;-57
2022/04/10 02:54:26;;;;;;;8.00;2.00;;;;;;;2.47;74.90;99901.17;105906;1271;22537;-58
2022/04/10 02:56:59;;;;;;;10.10;2.20;;;;;;;2.46;75.17;99905.99;105784;1271;22615;-57
2022/04/10 02:59:30;;;;;;;7.80;2.40;;;;;;;2.45;75.04;99905.69;105948;1270;25262;-57
2022/04/10 03:02:02;;;;;;;7.60;2.10;;;;;;;2.47;75.33;99904.27;105832;1270;22490;-57
2022/04/10 03:04:33;;;;;;;6.70;2.30;;;;;;;2.48;75.43;99909.88;105798;1270;23117;-58
2022/04/10 03:07:05;;;;;;;8.90;1.70;;;;;;;2.51;75.40;99913.76;106028;1270;23923;-59
2022/04/10 03:09:37;;;;;;;7.40;1.60;;;;;;;2.52;75.47;99910.18;105988;1270;25249;-58
2022/04/10 03:12:10;;;;;;;7.80;2.20;;;;;;;2.55;75.40;99912.80;105777;1270;25506;-55
2022/04/10 03:14:41;;;;;;;10.40;2.20;;;;;;;2.57;75.27;99916.90;105730;1270;24803;-56
2022/04/10 03:17:13;;;;;;;7.10;2.20;;;;;;;2.59;74.93;99922.86;105785;1271;22602;-58
2022/04/10 03:19:45;;;;;;;7.70;2.00;;;;;;;2.61;75.05;99928.23;105778;1270;22761;-56
2022/04/10 03:22:16;;;;;;;7.70;2.20;;;;;;;2.60;75.07;99929.65;106009;1270;22566;-56
2022/04/10 03:24:47;;;;;;;5.70;1.80;;;;;;;2.60;75.19;99930.77;106024;1270;22557;-56
2022/04/10 03:27:18;;;;;;;7.70;2.20;;;;;;;2.59;75.15;99933.88;105713;1270;22548;-56
2022/04/10 03:29:51;;;;;;;9.40;2.60;;;;;;;2.56;75.27;99941.48;105844;1270;22566;-58
2022/04/10 03:32:22;;;;;;;6.50;1.70;;;;;;;2.54;75.15;99944.61;105856;1270;25365;-57
2022/04/10 03:34:54;;;;;;;6.80;2.00;;;;;;;2.51;75.13;99947.20;105816;1270;25527;-59
2022/04/10 03:37:25;;;;;;;11.70;2.30;;;;;;;2.47;75.01;99946.83;105740;1270;25373;-58
2022/04/10 03:39:58;;;;;;;8.10;1.80;;;;;;;2.44;75.07;99953.89;105764;1270;25307;-56
2022/04/10 03:42:37;;;;;;;9.60;2.30;;;;;;;2.41;75.02;99956.90;105696;1270;25364;-57
2022/04/10 03:45:11;;;;;;;7.90;2.20;;;;;;;2.38;75.03;99959.80;105578;1271;22548;-57
2022/04/10 03:47:42;;;;;;;6.80;2.50;;;;;;;2.35;75.03;99961.36;105834;1270;22513;-58
2022/04/10 03:50:13;;;;;;;7.60;1.90;;;;;;;2.34;75.00;99963.69;105741;1270;23826;-58
2022/04/10 03:52:45;;;;;;;8.30;1.90;;;;;;;2.31;75.06;99964.77;105838;1270;23076;-58
2022/04/10 03:55:17;;;;;;;8.20;2.00;;;;;;;2.27;75.21;99970.70;105707;1270;22554;-56
2022/04/10 03:57:48;;;;;;;8.40;1.60;;;;;;;2.24;75.13;99978.16;105760;1271;25502;-56
2022/04/10 04:00:21;;;;;;;11.40;2.20;;;;;;;2.24;75.10;99980.38;105725;1270;24482;-55
2022/04/10 04:02:52;;;;;;;10.50;2.00;;;;;;;2.24;75.12;99985.80;105774;1270;22541;-57
2022/04/10 04:05:23;;;;;;;10.10;2.20;;;;;;;2.21;75.17;99993.66;105707;1270;27334;-57
2022/04/10 04:07:55;;;;;;;6.60;1.80;;;;;;;2.18;75.02;99998.50;105770;1270;24309;-57
2022/04/10 04:10:27;;;;;;;8.80;2.20;;;;;;;2.18;75.08;99999.78;105715;1270;24402;-55
2022/04/10 04:12:58;;;;;;;8.60;2.00;;;;;;;2.16;75.06;100002.97;105695;1270;22537;-57
2022/04/10 04:15:30;;;;;;;9.80;2.30;;;;;;;2.15;75.02;100010.15;105673;1271;22544;-57
2022/04/10 04:18:01;;;;;;;10.10;2.20;;;;;;;2.14;74.99;100017.50;105922;1271;25359;-57
2022/04/10 04:20:32;;;;;;;10.40;2.30;;;;;;;2.14;74.91;100018.98;105645;1271;25372;-54
2022/04/10 04:23:04;;;;;;;8.20;2.40;;;;;;;2.15;75.02;100022.17;105970;1271;22575;-57
2022/04/10 04:25:35;;;;;;;12.30;2.80;;;;;;;2.16;75.18;100027.84;105746;1270;22550;-57
2022/04/10 04:28:08;;;;;;;11.80;2.70;;;;;;;2.14;75.15;100029.14;105746;1270;22673;-55
2022/04/10 04:30:39;;;;;;;9.50;2.50;;;;;;;2.14;75.18;100030.48;105674;1271;25389;-57
2022/04/10 04:33:12;;;;;;;12.10;2.30;;;;;;;2.13;75.15;100034.83;105785;1270;22544;-57
2022/04/10 04:35:44;;;;;;;12.10;2.60;;;;;;;2.14;75.12;100034.82;105889;1270;24613;-55
2022/04/10 04:38:17;;;;;;;9.00;2.90;;;;;;;2.09;75.20;100042.23;105902;1270;22590;-58
2022/04/10 04:40:48;;;;;;;9.10;2.90;;;;;;;2.06;75.24;100042.23;105852;1270;22539;-58
2022/04/10 04:43:20;;;;;;;15.40;2.80;;;;;;;2.07;75.15;100051.33;105910;1270;25267;-56
2022/04/10 04:45:52;;;;;;;15.90;3.80;;;;;;;2.11;75.29;100057.77;105659;1270;22566;-59
2022/04/10 04:48:23;;;;;;;10.50;2.80;;;;;;;2.08;75.53;100065.30;105841;1270;22584;-58
2022/04/10 04:50:55;;;;;;;12.10;2.90;;;;;;;2.05;75.55;100068.36;105801;1270;23485;-59
2022/04/10 04:53:26;;;;;;;12.30;2.90;;;;;;;2.05;75.78;100071.45;105738;1271;22543;-59
2022/04/10 04:55:58;;;;;;;13.40;2.60;;;;;;;2.10;75.76;100078.80;106001;1270;25442;-59
2022/04/10 04:58:29;;;;;;;9.30;3.00;;;;;;;2.14;75.92;100080.29;105667;1270;24241;-58
2022/04/10 05:01:01;;;;;;;11.30;2.80;;;;;;;2.17;76.02;100083.52;105757;1270;22544;-57
2022/04/10 05:03:32;;;;;;;11.10;2.90;;;;;;;2.21;76.07;100089.34;105774;1270;22607;-56
2022/04/10 05:06:04;;;;;;;9.50;2.30;;;;;;;2.24;75.92;100090.46;105866;1270;24216;-56
2022/04/10 05:08:36;;;;;;;10.10;3.10;;;;;;;2.28;75.97;100094.70;105970;1268;25339;-58
2022/04/10 05:11:10;;;;;;;11.30;2.50;;;;;;;2.30;75.95;100094.56;105802;1270;22546;-59
2022/04/10 05:13:42;;;;;;;13.70;3.40;;;;;;;2.34;76.02;100102.04;105933;1270;25328;-58
2022/04/10 05:16:14;;;;;;;10.70;2.40;;;;;;;2.39;76.07;100104.91;106049;1270;24308;-59
2022/04/10 05:18:47;;;;;;;11.70;2.60;;;;;;;2.42;75.89;100108.70;105922;1270;22537;-57
2022/04/10 05:21:18;;;;;;;13.10;2.90;;;;;;;2.49;76.10;100113.61;105835;1270;24313;-57
2022/04/10 05:23:50;;;;;;;11.70;2.90;;;;;;;2.53;75.99;100112.17;105931;1270;24374;-56
2022/04/10 05:26:22;;;;;;;11.70;2.80;;;;;;;2.59;76.16;100117.49;105742;1270;22553;-57
2022/04/10 05:28:54;;;;;;;8.50;2.70;;;;;;;2.65;76.09;100119.54;105859;1270;23196;-54
2022/04/10 05:31:26;;;;;;;12.70;3.30;;;;;;;2.72;76.28;100123.95;105813;1270;22569;-56
2022/04/10 05:33:57;;;;;;;13.40;3.60;;;;;;;2.79;76.10;100120.95;105714;1271;24301;-58
2022/04/10 05:36:28;;;;;;;11.50;3.50;;;;;;;2.86;76.27;100130.00;105580;1270;23470;-56
2022/04/10 05:39:00;;;;;;;11.90;3.50;;;;;;;2.92;76.11;100133.64;105597;1270;24255;-54
2022/04/10 05:41:32;;;;;;;15.80;3.20;;;;;;;2.97;76.16;100133.19;105605;1270;22675;-56
2022/04/10 05:44:03;;;;;;;14.30;3.60;;;;;;;3.03;76.01;100137.54;105809;1270;22660;-56
2022/04/10 05:46:38;;;;;;;13.90;3.60;;;;;;;3.08;76.11;100139.23;105687;1270;22552;-57
2022/04/10 05:49:09;;;;;;;11.40;3.00;;;;;;;3.13;75.99;100135.17;105628;1270;22546;-58
2022/04/10 05:51:41;;;;;;;12.90;3.50;;;;;;;3.18;75.95;100144.28;105601;1271;22522;-57
2022/04/10 05:54:14;;;;;;;11.10;3.10;;;;;;;3.22;75.97;100141.34;105930;1270;24309;-57
2022/04/10 05:56:45;;;;;;;11.10;3.30;;;;;;;3.26;76.07;100141.88;105546;1271;22552;-57
2022/04/10 05:59:17;;;;;;;13.70;2.60;;;;;;;3.30;75.87;100144.30;105627;1270;25319;-57
2022/04/10 06:01:48;;;;;;;12.70;3.20;;;;;;;3.33;75.90;100145.16;105749;1270;22617;-52
2022/04/10 06:04:20;;;;;;;13.00;2.50;;;;;;;3.36;75.89;100147.30;105569;1270;22583;-56
2022/04/10 06:06:51;;;;;;;11.90;2.60;;;;;;;3.40;75.75;100150.66;105584;1271;22555;-54
2022/04/10 06:09:23;;;;;;;8.50;1.90;;;;;;;3.42;75.34;100155.27;105565;1270;22561;-54
2022/04/10 06:11:54;;;;;;;6.90;2.10;;;;;;;3.47;75.24;100156.50;105715;1270;24263;-56
2022/04/10 06:14:26;;;;;;;10.00;2.20;;;;;;;3.52;75.27;100154.70;105727;1270;24013;-54
2022/04/10 06:16:57;;;;;;;10.10;1.90;;;;;;;3.56;75.26;100154.75;105805;1270;22612;-56
2022/04/10 06:19:29;;;;;;;7.10;2.10;;;;;;;3.59;74.77;100156.32;105893;1270;22551;-56
2022/04/10 06:22:00;;;;;;;10.30;1.60;;;;;;;3.62;74.63;100155.39;105845;1271;24231;-54
2022/04/10 06:24:32;;;;;;;12.00;2.10;;;;;;;3.65;74.79;100153.80;105992;1271;23106;-55
2022/04/10 06:27:04;;;;;;;8.10;2.00;;;;;;;3.69;74.58;100155.98;105459;1271;22604;-54
2022/04/10 06:29:35;;;;;;;7.40;2.00;;;;;;;3.73;74.54;100154.39;105536;1271;22532;-53
2022/04/10 06:32:08;;;;;;;12.50;2.10;;;;;;;3.75;74.45;100151.17;105595;1271;24338;-57
2022/04/10 06:34:40;;;;;;;9.50;1.80;;;;;;;3.77;74.49;100156.64;105576;1270;22551;-58
2022/04/10 06:37:12;;;;;;;8.30;2.20;;;;;;;3.78;74.41;100156.70;105489;1271;22551;-58
2022/04/10 06:39:44;;;;;;;10.70;1.60;;;;;;;3.78;74.51;100156.16;105567;1271;24351;-56
2022/04/10 06:42:15;;;;;;;10.30;2.10;;;;;;;3.79;74.44;100162.13;105611;1270;22672;-55
2022/04/10 06:44:46;;;;;;;7.60;1.50;;;;;;;3.79;74.42;100159.58;105777;1270;25332;-56
2022/04/10 06:47:21;;;;;;;8.90;2.30;;;;;;;3.80;74.35;100160.52;105714;1270;25359;-56
2022/04/10 06:49:52;;;;;;;9.10;2.20;;;;;;;3.79;73.90;100164.48;105944;1271;22606;-53
2022/04/10 06:52:24;;;;;;;11.30;3.30;;;;;;;3.77;73.96;100168.41;105663;1270;22537;-58
2022/04/10 06:54:55;;;;;;;9.80;3.10;;;;;;;3.76;74.26;100169.63;105875;1270;24342;-56
2022/04/10 06:57:27;;;;;;;11.90;3.30;;;;;;;3.76;74.33;100172.20;105664;1271;24312;-56
2022/04/10 07:00:03;;;;;;;8.40;2.40;;;;;;;3.78;74.36;100172.46;105828;1271;24244;-58
2022/04/10 07:02:35;;;;;;;13.90;3.00;;;;;;;3.82;74.45;100173.31;105793;1271;25381;-53
2022/04/10 07:05:09;;;;;;;7.90;2.10;;;;;;;3.86;74.46;100169.34;105516;1270;25599;-57
2022/04/10 07:07:40;;;;;;;10.20;2.80;;;;;;;3.91;74.16;100168.81;105623;1273;25416;-60
2022/04/10 07:10:12;;;;;;;9.00;2.60;;;;;;;3.97;74.22;100170.14;105586;1270;25462;-58
2022/04/10 07:12:44;;;;;;;10.70;2.30;;;;;;;4.04;73.79;100173.27;105839;1270;22554;-58
2022/04/10 07:15:16;;;;;;;9.80;2.20;;;;;;;4.08;73.35;100178.36;105715;1270;25532;-57
2022/04/10 07:17:47;;;;;;;9.50;1.90;;;;;;;4.10;73.09;100179.42;105696;1271;22673;-58
2022/04/10 07:20:19;;;;;;;12.40;2.00;;;;;;;4.11;72.39;100179.02;105806;1271;22550;-56
2022/04/10 07:25:41;;;;;;;9.40;2.30;;;;;;;4.15;71.93;100189.86;105563;1270;25657;-58
2022/04/10 07:28:13;;;;;;;7.80;1.60;;;;;;;4.19;71.76;100188.02;105733;1270;22618;-57
2022/04/10 07:30:46;;;;;;;6.30;1.50;;;;;;;4.25;71.72;100184.45;106075;1270;22556;-57
2022/04/10 07:33:19;;;;;;;6.60;1.40;;;;;;;4.36;72.00;100185.65;106252;1271;22604;-56
2022/04/10 07:35:53;;;;;;;9.50;1.70;;;;;;;4.49;71.24;100190.15;106300;1270;22660;-57
2022/04/10 07:38:25;;;;;;;6.40;1.20;;;;;;;4.61;71.14;100189.59;106414;1270;25947;-57
2022/04/10 07:40:58;;;;;;;8.60;1.50;;;;;;;4.73;70.63;100190.38;106228;1270;24158;-56
2022/04/10 07:43:29;;;;;;;7.60;1.20;;;;;;;4.85;69.78;100188.78;105588;1270;24722;-54
2022/04/10 07:48:50;;;;;;;7.90;1.60;;;;;;;4.94;69.14;100192.45;105466;1270;22569;-56
2022/04/10 07:51:21;;;;;;;8.90;1.50;;;;;;;4.93;69.13;100189.70;106027;1270;22549;-57
2022/04/10 07:53:55;;;;;;;7.90;1.10;;;;;;;4.93;69.29;100191.52;107880;1271;24542;-57
2022/04/10 07:56:27;;;;;;;10.60;1.30;;;;;;;4.95;69.10;100189.40;106752;1264;22594;-52
2022/04/10 07:58:59;;;;;;;7.20;1.30;;;;;;;5.00;69.18;100188.86;106046;1269;22560;-54
2022/04/10 08:01:30;;;;;;;9.70;1.50;;;;;;;5.05;68.52;100193.13;106092;1270;22525;-49
2022/04/10 08:04:02;;;;;;;10.30;1.50;;;;;;;5.11;68.85;100193.80;106048;1270;22547;-53
2022/04/10 08:06:34;;;;;;;4.50;1.10;;;;;;;5.19;68.78;100191.50;106130;1269;26070;-50
2022/04/10 08:09:06;;;;;;;9.30;1.50;;;;;;;5.25;67.94;100193.67;106051;1270;22901;-50
2022/04/10 08:11:38;;;;;;;5.80;1.40;;;;;;;5.20;67.22;100191.54;106054;1271;24425;-52
2022/04/10 08:14:10;;;;;;;7.60;1.40;;;;;;;5.20;67.90;100190.21;106504;1270;22694;-50
2022/04/10 08:16:41;;;;;;;6.40;1.40;;;;;;;5.31;68.77;100191.58;106179;1270;22525;-52
2022/04/10 08:19:13;;;;;;;9.00;1.60;;;;;;;5.45;68.40;100194.90;106284;1270;40792;-51
2022/04/10 08:21:44;;;;;;;5.70;1.60;;;;;;;5.56;68.23;100197.50;106148;1270;25348;-54
2022/04/10 08:24:16;;;;;;;10.30;1.70;;;;;;;5.67;67.89;100199.73;106054;1270;25306;-53
2022/04/10 08:26:49;;;;;;;9.40;2.00;;;;;;;5.70;67.87;100206.83;106167;1270;25354;-51
2022/04/10 08:29:21;;;;;;;15.70;3.40;;;;;;;5.65;67.19;100202.64;106094;1271;25236;-52
2022/04/10 08:31:53;;;;;;;8.80;2.20;;;;;;;5.57;66.84;100206.77;106100;1270;22556;-54
2022/04/10 08:34:25;;;;;;;7.70;1.80;;;;;;;5.52;67.00;100209.34;106082;1270;24573;-52
2022/04/10 08:36:56;;;;;;;8.80;1.50;;;;;;;5.50;66.60;100208.86;106077;1271;25353;-54
2022/04/10 08:39:29;;;;;;;7.20;1.60;;;;;;;5.50;66.82;100210.09;106263;1271;24421;-55
2022/04/10 08:42:04;;;;;;;6.90;2.10;;;;;;;5.53;66.88;100210.09;106084;1271;25357;-57
2022/04/10 08:44:38;;;;;;;5.70;1.00;;;;;;;5.53;66.01;100215.48;106437;1270;23066;-50
2022/04/10 08:47:10;;;;;;;6.20;1.20;;;;;;;5.49;66.01;100214.96;106294;1270;25291;-52
2022/04/10 08:49:42;;;;;;;8.00;1.10;;;;;;;5.47;66.14;100216.85;105922;1268;25701;-55
2022/04/10 08:52:14;;;;;;;7.00;1.30;;;;;;;5.46;66.03;100216.72;106892;1270;23324;-56
2022/04/10 08:54:47;;;;;;;6.00;1.10;;;;;;;5.47;65.63;100217.02;105736;1270;25371;-52
2022/04/10 08:57:19;;;;;;;4.90;1.00;;;;;;;5.51;65.98;100215.91;106059;1270;23213;-53
2022/04/10 08:59:50;;;;;;;10.60;1.10;;;;;;;5.58;64.99;100217.66;105918;1270;22540;-51
2022/04/10 09:02:22;;;;;;;3.00;0.60;;;;;;;5.68;64.18;100221.08;106867;1270;24293;-50
2022/04/10 09:04:54;;;;;;;7.50;1.00;;;;;;;5.74;63.75;100223.23;105966;1270;25947;-51
2022/04/10 09:07:26;;;;;;;5.80;1.00;;;;;;;5.75;63.00;100223.03;105982;1270;22552;-50
2022/04/10 09:09:59;;;;;;;5.50;1.40;;;;;;;5.75;63.18;100220.41;106139;1270;22616;-52
2022/04/10 09:12:31;;;;;;;5.20;0.50;;;;;;;5.78;62.53;100222.00;105977;1270;23214;-56
2022/04/10 09:15:07;;;;;;;2.60;0.50;;;;;;;5.77;62.01;100225.23;105897;1270;24369;-51
2022/04/10 09:17:54;;;;;;;6.90;0.60;;;;;;;5.77;62.15;100222.43;106041;1270;25020;-54
2022/04/10 09:20:26;;;;;;;4.30;0.40;;;;;;;5.80;61.72;100222.25;106003;1271;40244;-54
2022/04/10 09:23:11;;;;;;;4.20;0.50;;;;;;;5.84;61.50;100223.88;106122;1270;25222;-54
2022/04/10 09:25:47;;;;;;;3.90;0.40;;;;;;;5.89;60.95;100225.00;105917;1271;26496;-53
2022/04/10 09:28:18;;;;;;;4.10;0.80;;;;;;;5.93;61.06;100230.95;105822;1270;25433;-53
2022/04/10 09:30:50;;;;;;;5.40;0.60;;;;;;;5.97;61.54;100229.78;106172;1269;24292;-53
2022/04/10 09:33:21;;;;;;;14.10;1.00;;;;;;;5.98;61.35;100232.73;105861;1270;710507;-51
2022/04/10 09:35:54;;;;;;;6.60;0.80;;;;;;;5.99;61.76;100233.41;105950;1271;22539;-53
2022/04/10 09:38:33;;;;;;;6.90;0.70;;;;;;;6.00;62.39;100234.73;106028;1271;26670;-55
2022/04/10 09:41:14;;;;;;;5.20;1.10;;;;;;;6.01;61.57;100232.38;105810;1270;22566;-51
2022/04/10 09:43:47;;;;;;;7.30;0.90;;;;;;;6.03;61.20;100229.41;106054;1270;22777;-51
2022/04/10 09:46:19;;;;;;;5.30;0.80;;;;;;;6.11;62.02;100225.80;105990;1270;22534;-52
2022/04/10 09:48:51;;;;;;;6.20;1.40;;;;;;;6.21;61.11;100224.34;106282;1270;22571;-54
2022/04/10 09:51:23;;;;;;;9.80;1.00;;;;;;;6.30;60.83;100227.59;105830;1270;25323;-51
2022/04/10 09:54:07;;;;;;;9.70;0.80;;;;;;;6.39;60.78;100221.68;105824;1270;24299;-52
2022/04/10 09:56:39;;;;;;;4.70;0.70;;;;;;;6.57;60.11;100222.02;106458;1270;22560;-51
2022/04/10 09:59:12;;;;;;;10.90;1.40;;;;;;;6.70;58.68;100215.91;105754;1270;24749;-57
2022/04/10 10:01:45;;;;;;;9.60;2.10;;;;;;;6.80;58.48;100211.25;106180;1270;25474;-54
2022/04/10 10:04:19;;;;;;;5.60;0.90;;;;;;;6.89;57.88;100216.52;105795;1271;22754;-51
2022/04/10 10:06:52;;;;;;;4.00;0.50;;;;;;;6.92;57.95;100218.38;106418;1270;22962;-54
2022/04/10 10:09:24;;;;;;;9.90;1.10;;;;;;;6.92;57.93;100212.58;106311;1271;23070;-52
2022/04/10 10:11:56;;;;;;;4.60;0.70;;;;;;;6.90;57.58;100213.77;106109;1269;25314;-52
2022/04/10 10:14:29;;;;;;;7.90;0.90;;;;;;;6.91;57.54;100215.11;105956;1271;22549;-53
2022/04/10 10:17:02;;;;;;;7.60;0.60;;;;;;;6.95;57.06;100222.67;105859;1271;24087;-54
2022/04/10 10:19:38;;;;;;;10.00;0.80;;;;;;;6.91;56.74;100223.14;106410;1270;35735;-52
2022/04/10 10:22:11;;;;;;;6.60;1.20;;;;;;;6.84;56.55;100228.36;106158;1270;22653;-55
2022/04/10 10:24:50;;;;;;;4.90;0.60;;;;;;;6.77;57.15;100230.84;106044;1270;24930;-53
2022/04/10 10:27:55;;;;;;;4.40;0.70;;;;;;;6.74;57.07;100238.19;105804;1270;22532;-55
2022/04/10 10:30:36;;;;;;;8.90;1.30;;;;;;;6.67;57.39;100233.38;106082;1270;22613;-50
2022/04/10 10:33:18;;;;;;;10.10;1.60;;;;;;;6.68;57.28;100225.63;105990;1270;25391;-51
2022/04/10 10:35:53;;;;;;;9.40;1.70;;;;;;;6.73;57.35;100217.13;106011;1270;24437;-53
2022/04/10 10:38:27;;;;;;;7.10;0.70;;;;;;;6.82;57.04;100212.73;106482;1269;25414;-51
2022/04/10 10:41:30;;;;;;;9.70;1.00;;;;;;;6.94;57.38;100217.12;106019;1270;22533;-50
2022/04/10 10:44:18;;;;;;;3.70;0.60;;;;;;;7.12;56.70;100204.11;105794;1270;25350;-52
2022/04/10 10:47:02;;;;;;;6.80;0.90;;;;;;;7.29;56.31;100208.42;105730;1270;25548;-49
2022/04/10 10:49:45;;;;;;;9.00;1.30;;;;;;;7.41;55.89;100210.81;106108;1270;24385;-53
2022/04/10 10:52:17;;;;;;;4.10;0.90;;;;;;;7.46;55.01;100208.84;105860;1270;23190;-52
2022/04/10 10:54:54;;;;;;;4.80;0.70;;;;;;;7.49;54.00;100204.64;105819;1270;22577;-53
2022/04/10 10:57:29;;;;;;;5.20;0.70;;;;;;;7.50;54.56;100202.84;105880;1270;22546;-53
2022/04/10 11:00:17;;;;;;;4.60;0.70;;;;;;;7.47;54.12;100205.33;105903;1270;22602;-52
2022/04/10 11:02:55;;;;;;;9.20;1.20;;;;;;;7.41;54.68;100206.95;106372;1270;22559;-51
2022/04/10 11:05:33;;;;;;;6.80;0.90;;;;;;;7.35;55.07;100216.44;105895;1271;24279;-56
2022/04/10 11:08:08;;;;;;;5.40;0.70;;;;;;;7.29;55.03;100212.64;106113;1271;22537;-50
2022/04/10 11:10:51;;;;;;;6.00;0.70;;;;;;;7.20;55.17;100224.90;105884;1270;22653;-53
2022/04/10 11:13:23;;;;;;;5.40;0.60;;;;;;;6.98;55.59;100248.35;106349;1270;22710;-53
2022/04/10 11:15:56;;;;;;;6.20;0.80;;;;;;;6.68;56.67;100247.36;106405;1271;22538;-49
2022/04/10 11:18:36;;;;;;;6.40;1.00;;;;;;;6.50;58.20;100253.34;105923;1270;24437;-51
2022/04/10 11:21:14;;;;;;;;;;;;;;;6.31;58.51;100261.23;105867;1271;34848;-53
2022/04/10 11:23:46;;;;;;;4.90;0.60;;;;;;;6.13;58.74;100265.96;106077;1271;22742;-52
2022/04/10 11:26:20;;;;;;;4.80;0.70;;;;;;;5.98;58.83;100251.02;106342;1270;22528;-52
2022/04/10 11:29:05;;;;;;;3.60;0.70;;;;;;;5.88;59.07;100246.55;105923;1271;22630;-54
2022/04/10 11:31:40;;;;;;;3.30;0.60;;;;;;;5.84;58.93;100246.04;105930;1270;22527;-50
2022/04/10 11:34:14;;;;;;;9.10;0.90;;;;;;;5.84;59.39;100239.48;105817;1270;24370;-53
2022/04/10 11:36:57;;;;;;;7.00;1.00;;;;;;;5.91;59.84;100236.85;105963;1270;25248;-53
2022/04/10 11:39:30;;;;;;;9.50;1.50;;;;;;;6.05;59.95;100243.05;105903;1270;22531;-53
2022/04/10 11:42:03;;;;;;;6.20;0.80;;;;;;;6.21;60.17;100232.98;105781;1271;22554;-51
2022/04/10 11:44:36;;;;;;;5.60;1.40;;;;;;;6.38;59.68;100229.12;106658;1270;22572;-53
2022/04/10 11:47:09;;;;;;;6.00;0.90;;;;;;;6.52;59.36;100227.04;105825;1270;24247;-49
2022/04/10 11:49:49;;;;;;;7.70;1.20;;;;;;;6.64;59.03;100237.59;108843;1270;25407;-51
2022/04/10 11:52:22;;;;;;;3.80;0.50;;;;;;;6.60;59.94;100255.97;106790;1271;22548;-53
2022/04/10 11:54:54;;;;;;;5.70;0.60;;;;;;;6.17;61.51;100271.35;105779;1270;26493;-55
2022/04/10 11:57:27;;;;;;;2.70;0.60;;;;;;;5.64;63.26;100271.05;108227;1269;22595;-53
2022/04/10 11:59:59;;;;;;;3.60;0.30;;;;;;;5.23;63.97;100263.41;105922;1268;22550;-56